createdAt,value
2023-12-11T05:26:02.869Z,0.76
2023-12-11T05:30:07.733Z,0.76
2023-12-11T05:34:10.543Z,0.23
2023-12-11T05:38:13.743Z,0.14
2023-12-11T05:42:16.556Z,0.13
2023-12-11T05:46:20.144Z,0.25
2023-12-11T05:50:22.882Z,0.33
2023-12-11T05:54:26.386Z,0.40
2023-12-11T05:58:29.221Z,0.41
2023-12-11T06:02:32.478Z,0.29
2023-12-11T06:06:35.641Z,0.46
2023-12-11T06:10:38.506Z,0.34
2023-12-11T06:14:44.532Z,0.37
2023-12-11T06:18:49.260Z,0.23
2023-12-11T06:22:52.563Z,0.24
2023-12-11T06:26:55.382Z,0.27
2023-12-11T06:30:58.539Z,0.28
2023-12-11T06:35:01.498Z,0.30
2023-12-11T06:39:05.019Z,0.29
2023-12-11T06:43:07.882Z,0.23
2023-12-11T06:47:11.136Z,0.30
2023-12-11T06:51:17.195Z,0.43
2023-12-11T06:55:20.445Z,0.45
2023-12-11T06:59:23.872Z,0.50
2023-12-11T07:03:27.390Z,0.55
2023-12-11T07:07:30.323Z,0.56
2023-12-11T07:11:33.608Z,0.58
2023-12-11T07:15:36.513Z,0.65
2023-12-11T07:19:39.804Z,0.77
2023-12-11T07:23:42.990Z,0.75
2023-12-11T07:27:46.816Z,0.68
2023-12-11T07:31:49.694Z,0.74
2023-12-11T07:35:53.518Z,0.70
2023-12-11T07:39:58.191Z,0.72
2023-12-11T07:44:03.303Z,0.84
2023-12-11T07:48:07.551Z,0.79
2023-12-11T07:52:11.555Z,0.84
2023-12-11T07:56:24.733Z,0.97
2023-12-11T08:00:27.860Z,1.10
2023-12-11T08:04:31.096Z,1.26
2023-12-11T08:08:33.883Z,1.37
2023-12-11T08:12:37.199Z,1.57
2023-12-11T08:16:40.111Z,1.58
2023-12-11T08:20:45.154Z,1.55
2023-12-11T08:24:48.980Z,1.48
2023-12-11T08:28:52.209Z,1.65
2023-12-11T08:32:55.063Z,1.65
2023-12-11T08:36:58.454Z,1.67
2023-12-11T08:41:01.360Z,1.76
2023-12-11T08:45:05.840Z,1.71
2023-12-11T08:49:08.962Z,1.69
2023-12-11T08:53:12.228Z,1.89
2023-12-11T08:57:14.957Z,2.07
2023-12-11T09:01:19.111Z,2.34
2023-12-11T09:05:22.035Z,2.59
2023-12-11T09:09:25.228Z,3.12
2023-12-11T09:13:29.645Z,3.62
2023-12-11T09:17:33.732Z,4.47
2023-12-11T09:21:37.545Z,4.70
2023-12-11T09:25:40.664Z,4.59
2023-12-11T09:29:43.730Z,4.15
2023-12-11T09:33:47.429Z,3.69
2023-12-11T09:37:53.159Z,3.81
2023-12-11T09:42:01.224Z,3.81
2023-12-11T09:46:09.032Z,4.80
2023-12-11T09:50:21.701Z,5.35
2023-12-11T09:54:28.137Z,4.87
2023-12-11T09:58:33.729Z,4.48
2023-12-11T10:02:42.601Z,4.32
2023-12-11T10:06:56.020Z,5.31
2023-12-11T10:11:19.236Z,7.00
2023-12-11T10:15:26.852Z,7.36
2023-12-11T10:19:34.549Z,7.19
2023-12-11T10:23:37.880Z,6.75
2023-12-11T10:27:47.193Z,6.46
2023-12-11T10:31:52.309Z,7.06
2023-12-11T10:36:14.352Z,7.32
2023-12-11T10:40:18.166Z,9.27
2023-12-11T10:44:40.271Z,10.39
2023-12-11T10:49:27.280Z,11.31
2023-12-11T10:53:33.326Z,11.66
2023-12-11T10:57:44.639Z,11.89
2023-12-11T11:01:52.900Z,12.26
2023-12-11T11:05:57.007Z,12.26
2023-12-11T11:10:18.798Z,12.57
2023-12-11T11:14:52.429Z,12.17
2023-12-11T11:19:10.315Z,11.90
2023-12-11T11:23:20.146Z,12.22
2023-12-11T11:27:43.854Z,12.49
2023-12-11T11:36:23.205Z,11.01
2023-12-11T11:40:48.651Z,10.89
2023-12-11T11:44:58.974Z,11.52
2023-12-11T11:49:02.528Z,11.13
2023-12-11T11:53:12.764Z,11.40
2023-12-11T11:57:16.805Z,11.07
2023-12-11T12:01:21.118Z,11.08
2023-12-11T12:05:35.678Z,12.06
2023-12-11T12:09:51.394Z,12.80
2023-12-11T12:14:00.708Z,12.69
2023-12-11T12:18:10.831Z,12.95
2023-12-11T12:22:15.812Z,13.00
2023-12-11T12:26:18.838Z,12.62
2023-12-11T12:30:23.574Z,12.34
2023-12-11T12:34:28.329Z,13.48
2023-12-11T12:38:32.481Z,13.20
2023-12-11T12:42:35.405Z,12.75
2023-12-11T12:46:44.085Z,10.56
2023-12-11T12:50:47.461Z,9.35
2023-12-11T12:54:51.626Z,10.62
2023-12-11T12:58:57.382Z,11.20
2023-12-11T13:03:01.024Z,11.94
2023-12-11T13:07:13.381Z,12.67
2023-12-11T13:11:16.753Z,12.34
2023-12-11T13:15:19.519Z,12.40
2023-12-11T13:19:26.316Z,9.90
2023-12-11T13:23:29.215Z,7.83
2023-12-11T13:27:32.622Z,7.09
2023-12-11T13:31:35.618Z,6.40
2023-12-11T13:35:38.586Z,5.96
2023-12-11T13:39:41.379Z,5.60
2023-12-11T13:43:44.558Z,5.35
2023-12-11T13:47:47.320Z,5.35
2023-12-11T13:51:50.413Z,5.12
2023-12-11T13:55:53.227Z,4.88
2023-12-11T13:59:56.233Z,4.94
2023-12-11T14:03:59.075Z,4.95
2023-12-11T14:08:05.536Z,4.75
2023-12-11T14:12:08.810Z,4.32
2023-12-11T14:16:12.452Z,4.22
2023-12-11T14:20:15.309Z,3.88
2023-12-11T14:24:18.985Z,3.66
2023-12-11T14:28:21.691Z,3.44
2023-12-11T14:32:24.906Z,3.35
2023-12-11T14:36:27.993Z,3.17
2023-12-11T14:40:31.569Z,2.94
2023-12-11T14:44:35.722Z,2.76
2023-12-11T14:48:40.068Z,2.58
2023-12-11T14:52:43.493Z,2.57
2023-12-11T14:56:47.009Z,2.43
2023-12-11T15:00:49.862Z,2.40
2023-12-11T15:04:53.119Z,2.39
2023-12-11T15:08:55.878Z,2.21
2023-12-11T15:12:59.410Z,2.22
2023-12-11T15:17:02.481Z,2.35
2023-12-11T15:21:05.708Z,2.27
2023-12-11T15:25:12.337Z,2.17
2023-12-11T15:29:15.465Z,2.16
2023-12-11T15:33:18.302Z,2.16
2023-12-11T15:37:21.458Z,2.11
2023-12-11T15:41:24.174Z,1.89
2023-12-11T15:45:27.229Z,1.86
2023-12-11T15:49:30.115Z,1.94
2023-12-11T15:53:34.436Z,1.72
2023-12-11T15:57:37.138Z,1.98
2023-12-11T16:01:40.303Z,1.84
2023-12-11T16:05:43.429Z,2.01
